• Join FlightAware (Why Join?)
  • Login
  • US Flag 
06:39PM EST


 

Airport Tracker/Info


-or-


 

Live Flight TrackerFlight Track Log ✈ FLG3776 ✈ 19-Apr-2013 ✈ KMSP - KAZO

Flight Track Log - Related Links

Times and Time Zones

All times are in EDT time to prevent confusion due to time zone crossing. See the FLG3776 flight status page for this flight to view local times or setup timezone preferences in your user account.

Time Position Orientation Groundspeed Altitude Reporting Facility
EDT Latitude Longitude Course Direction KTS MPH feet Rate Location/Type
08:46PM 44.9086 -93.2353 117° Southeast 154 177 2,400  Level FAA TRACON SMA TRACON (SMA)
08:46PM 44.9275 -93.2328 North 172 198 3,200 2,400 Climbing FAA TRACON SMA TRACON (SMA)
08:46PM 44.9439 -93.2306 North 188 216 4,000 2,100 Climbing FAA TRACON SMA TRACON (SMA)
08:47PM 44.9617 -93.2286 North 202 232 4,600 2,400 Climbing FAA TRACON SMA TRACON (SMA)
08:47PM 44.9861 -93.2197 14° North 235 270 5,600 3,120 Climbing FAA TRACON SMA TRACON (SMA)
08:47PM 45.0006 -93.1969 48° Northeast 258 297 6,700 3,120 Climbing FAA TRACON SMA TRACON (SMA)
08:48PM 45.0064 -93.1653 75° East 271 312 7,700 3,180 Climbing FAA TRACON SMA TRACON (SMA)
08:48PM 44.9992 -93.1233 104° East 291 335 8,900 2,880 Climbing FAA TRACON SMA TRACON (SMA)
08:48PM 44.9850 -93.0931 123° Southeast 300 345 9,700 2,220 Climbing FAA TRACON SMA TRACON (SMA)
08:49PM 44.7033 -92.6286 118° Southeast  Level Estimated
08:49PM 44.9706 -93.0617 123° Southeast 308 354 10,400  Level FAA TRACON SMA TRACON (SMA)
08:49PM 44.9572 -93.0267 118° Southeast 323 372 10,600 1,020 Climbing FAA TRACON SMA TRACON (SMA)
08:49PM 44.9406 -92.9797 117° Southeast 345 397 11,100 1,920 Climbing FAA TRACON SMA TRACON (SMA)
08:50PM 44.6392 -92.4955 124° Southeast  Level FlightAware Approximate
08:50PM 44.9267 -92.9406 117° Southeast 359 413 11,900  Level FAA TRACON SMA TRACON (SMA)
08:50PM 44.9131 -92.9014 116° Southeast 362 417 12,500 2,520 Climbing FAA TRACON SMA TRACON (SMA)
08:50PM 44.8961 -92.8522 116° Southeast 366 421 13,500 2,460 Climbing FAA TRACON SMA TRACON (SMA)
08:51PM 44.5991 -92.3350 117° Southeast  Level FlightAware Approximate
08:51PM 44.8817 -92.8122 117° Southeast 369 425 14,100  Level FAA TRACON SMA TRACON (SMA)
08:51PM 44.8672 -92.7717 117° Southeast 375 432 14,600 1,920 Climbing FAA TRACON SMA TRACON (SMA)
08:51PM 44.8489 -92.7206 117° Southeast 379 436 15,400 2,100 Climbing FAA TRACON SMA TRACON (SMA)
08:52PM 44.8347 -92.6789 116° Southeast 383 441 16,000 1,620 Climbing FAA TRACON SMA TRACON (SMA)
08:52PM 44.8197 -92.6375 117° Southeast 386 444 16,500 1,620 Climbing FAA TRACON SMA TRACON (SMA)
08:52PM 44.8011 -92.5842 116° Southeast 392 451 17,100 1,920 Climbing FAA TRACON SMA TRACON (SMA)
08:53PM 44.7864 -92.5414 116° Southeast 395 455 17,800 1,800 Climbing FAA TRACON SMA TRACON (SMA)
08:53PM 44.7708 -92.4992 117° Southeast 397 457 18,300 1,620 Climbing FAA TRACON SMA TRACON (SMA)
08:53PM 44.7511 -92.4456 117° Southeast 400 460 18,900 1,620 Climbing FAA TRACON SMA TRACON (SMA)
08:54PM 44.7367 -92.4022 115° Southeast 401 461 19,400 1,500 Climbing FAA TRACON SMA TRACON (SMA)
08:54PM 44.7217 -92.3583 116° Southeast 403 464 19,900 1,440 Climbing FAA TRACON SMA TRACON (SMA)
08:54PM 44.7011 -92.3042 118° Southeast 407 468 20,400 1,260 Climbing FAA TRACON SMA TRACON (SMA)
08:55PM 44.6853 -92.2603 117° Southeast 409 471 20,800 1,320 Climbing FAA TRACON SMA TRACON (SMA)
08:55PM 44.6697 -92.2161 116° Southeast 411 473 21,300 1,320 Climbing FAA TRACON SMA TRACON (SMA)
08:55PM 44.6511 -92.1597 115° Southeast 412 474 21,700 1,200 Climbing FAA TRACON SMA TRACON (SMA)
08:56PM 44.6344 -92.1153 118° Southeast 417 480 22,100 1,200 Climbing FAA TRACON SMA TRACON (SMA)
08:56PM 44.6186 -92.0708 117° Southeast 417 480 22,500 1,380 Climbing FAA TRACON SMA TRACON (SMA)
08:56PM 44.5994 -92.0144 116° Southeast 416 479 23,000 1,200 Climbing FAA TRACON SMA TRACON (SMA)
08:57PM 44.5825 -91.9697 118° Southeast 419 482 23,300 720 Climbing FAA TRACON SMA TRACON (SMA)
08:57PM 44.5667 -91.9239 116° Southeast 423 487 23,500 840 Climbing FAA TRACON SMA TRACON (SMA)
08:58PM 44.4811 -91.7258 121° Southeast 431 496 24,800 840 Climbing Minneapolis Center
09:00PM 44.4258 -91.5764 117° Southeast 434 499 25,700 720 Climbing Minneapolis Center
09:01PM 44.3686 -91.4283 118° Southeast 434 499 26,400 600 Climbing Minneapolis Center
09:02PM 44.3117 -91.2789 118° Southeast 436 502 27,000 600 Climbing Minneapolis Center
09:03PM 44.2439 -91.0961 117° Southeast 440 506 27,700 600 Climbing Minneapolis Center
09:04PM 44.1856 -90.9414 118° Southeast 445 512 28,300 480 Climbing Minneapolis Center
09:05PM 44.1267 -90.7906 119° Southeast 447 514 28,800 300 Climbing Minneapolis Center
09:06PM 44.0675 -90.6361 118° Southeast 451 519 29,000 60 Climbing Minneapolis Center
09:07PM 44.0125 -90.4708 115° Southeast 456 525 29,000  Level Minneapolis Center
09:08PM 43.9597 -90.3094 114° Southeast 459 528 29,000  Level Minneapolis Center
09:09PM 43.8975 -90.1219 115° Southeast 458 527 29,000  Level Minneapolis Center
09:10PM 43.8442 -89.9617 115° Southeast 458 527 29,000  Level Minneapolis Center
09:11PM 43.7908 -89.8025 115° Southeast 457 526 29,000  Level Minneapolis Center
09:12PM 43.7458 -89.6719 115° Southeast 453 521 29,000  Level Minneapolis Center
09:13PM 43.6839 -89.4897 115° Southeast 450 518 29,000  Level Minneapolis Center
09:14PM 43.6219 -89.3103 115° Southeast 446 513 29,000  Level Minneapolis Center
09:15PM 43.5953 -89.2333 116° Southeast 445 512 29,000  Level Chicago Center
09:16PM 43.5328 -89.0547 116° Southeast 445 512 29,000  Level Chicago Center
09:17PM 43.4792 -88.9006 116° Southeast 446 513 29,000  Level Chicago Center
09:18PM 43.4253 -88.7456 116° Southeast 451 519 29,000  Level Chicago Center
09:19PM 43.3719 -88.5933 116° Southeast 450 518 29,000  Level Chicago Center
09:20PM 43.3094 -88.4169 116° Southeast 452 520 29,000  Level Chicago Center
09:21PM 43.2536 -88.2619 116° Southeast 454 522 29,000  Level Chicago Center
09:22PM 43.1981 -88.1061 116° Southeast 456 525 29,000  Level Chicago Center
09:23PM 43.1428 -87.9508 116° Southeast 455 524 29,000  Level Chicago Center
09:24PM 43.0856 -87.7969 117° Southeast 454 522 29,000  Level Chicago Center
09:25PM 43.0297 -87.6422 116° Southeast 453 521 29,000  Level Chicago Center
09:26PM 42.9642 -87.4664 117° Southeast 448 516 29,000 -360 Level Chicago Center
09:27PM 42.9175 -87.3381 116° Southeast 451 519 28,300 -1,740 Descending Chicago Center
09:28PM 42.8519 -87.1619 117° Southeast 441 507 25,500 -2,460 Descending Chicago Center
09:29PM 42.7975 -87.0189 117° Southeast 428 493 23,300 -2,160 Descending Chicago Center
09:30PM 42.7450 -86.8786 117° Southeast 419 482 21,100 -2,100 Descending Chicago Center
09:31PM 42.6939 -86.7436 117° Southeast 406 467 19,000 -2,100 Descending Chicago Center
09:32PM 42.6456 -86.6147 117° Southeast 389 448 16,800 -2,100 Descending Chicago Center
09:33PM 42.5967 -86.4889 118° Southeast 382 440 14,700 -2,280 Descending Chicago Center
09:34PM 42.5397 -86.3406 117° Southeast 374 430 12,200 -1,800 Descending Chicago Center
09:35PM 42.4919 -86.2175 118° Southeast 373 429 11,100 -660 Descending Chicago Center
09:36PM 42.4478 -86.1014 117° Southeast 354 407 10,900 -780 Descending Chicago Center
09:37PM 42.4064 -85.9925 117° Southeast 330 380 9,600 -1,560 Descending Chicago Center
09:38PM 42.3969 -85.8783 96° East 316 364 7,800 -1,680 Descending Chicago Center
09:39PM 42.3950 -85.7675 91° East 303 349 6,200 -1,680 Descending Chicago Center
09:40PM 42.4011 -85.6594 86° East 294 338 4,400 -1,500 Descending Chicago Center
09:41PM 42.3722 -85.5753 115° Southeast 245 282 3,200 -840 Descending Chicago Center
09:42PM 42.3256 -85.5689 174° South 180 207 2,700 -720 Descending Chicago Center
09:43PM 42.2931 -85.5622 171° South 143 165 1,800 -660 Descending Chicago Center
09:44PM 42.2478 -85.5533 172° South 138 159 1,400 600 Descending Chicago Center
09:45PM 42.2036 -85.5369 165° South 163 188 3,100 780 Climbing Chicago Center
09:46PM 42.1478 -85.5075 159° South 208 239 3,100  Level Chicago Center
09:48PM 42.1431 -85.4394 95° East 249 287 3,100  Level Chicago Center
09:49PM 42.1997 -85.4281 North 217 250 3,100 -60 Level Chicago Center
09:50PM 42.2583 -85.4392 352° North 213 245 3,000 -60 Descending Chicago Center
09:51PM 42.3128 -85.4728 335° Northwest 204 235 3,000  Level Chicago Center
09:52PM 42.3661 -85.4939 344° North 201 231 3,000  Level Chicago Center
09:53PM 42.4131 -85.5167 340° North 190 219 3,000  Level Chicago Center
09:54PM 42.3858 -85.5711 236° Southwest 192 221 3,000 -60 Level Chicago Center
09:55PM 42.3500 -85.5750 185° South 147 169 2,900 -60 Descending Chicago Center
09:56PM 42.3111 -85.5647 169° South 141 162 2,900  Level Chicago Center
09:57PM 42.2536 -85.5325 157° South 218 251 3,000  Climbing Chicago Center
09:58PM 42.2933 -85.4672 51° Northeast 245 282 3,000  Level Chicago Center
09:59PM 42.3492 -85.4744 355° North 207 238 3,100  Climbing Chicago Center
10:00PM 42.4047 -85.4797 356° North 200 230 3,100  Level Chicago Center
10:01PM 42.4631 -85.4856 356° North 207 238 3,100  Level Chicago Center
10:02PM 42.5222 -85.4653 14° North 216 249 3,100  Level Chicago Center
10:03PM 42.5783 -85.4419 17° North 214 246 3,100  Level Chicago Center
10:04PM 42.6453 -85.4181 15° North 210 242 3,100  Level Chicago Center
10:05PM 42.7033 -85.4017 12° North 212 244 3,100  Level Chicago Center
10:06PM 42.7603 -85.3989 North 209 241 3,100 -300 Level Chicago Center
10:07PM 42.8164 -85.3833 11° North 206 237 2,500 -300 Descending Chicago Center
10:08PM 42.8686 -85.3772 North 199 229 2,500 -120 Level Chicago Center
10:09PM 42.8903 -85.4158 307° West 159 183 2,300 -540 Descending Chicago Center
10:10PM 42.8853 -85.4606 261° West 132 152 1,500 -660 Descending Chicago Center
10:11PM 42.8800 -85.5097 262° West 124 143 1,000 -540 Descending Chicago Center